Nearby METAR Reports

 

KBMG - Bloomington, Indiana, USA
Distance from station: SSE 11mi, 18km
Updated: Sat, 28-Nov-2020 7:53pm EST
Clear
Clear
 Wind from calm
Wind: Calm
Temperature: 36°F , 2°C
Dew Point: 27°F , -3°C
Humidity: 70%
Barometer: 30.18 inHg , 1022 hPa
Clouds: Clear
Visibility: 10 miles , 16 km
2020/11/29 00:53 KBMG 290053Z 00000KT 10SM CLR 02/M03 A3018 RMK AO2 SLP228 T00171033
KGPC - Greencastle, Indiana, USA
Distance from station: NNW 24mi, 39km
Updated: Sat, 28-Nov-2020 8:15pm EST
Clear
Clear
 Wind from SW
Wind: SW 7 mph , 11 km/h
Temperature: 39°F , 4°C
Wind Chill: 34°F , 1°C
Dew Point: 23°F , -5°C
Humidity: 52%
Barometer: 30.19 inHg , 1022.4 hPa
Clouds: Clear
Visibility: 10 miles , 16 km
2020/11/29 01:15 KGPC 290115Z AUTO 22006KT 10SM CLR 04/M05 A3019 RMK AO2 T00361047
 
KHUF - Terre Haute, Indiana, USA
Distance from station: WNW 34mi, 54km
Updated: Sat, 28-Nov-2020 7:53pm EST
Clear
Clear
 Wind from SSW
Wind: SSW 3 mph , 6 km/h
Temperature: 37°F , 3°C
Dew Point: 27°F , -3°C
Humidity: 65%
Barometer: 30.19 inHg , 1022.4 hPa
Clouds: Clear
Visibility: 10 miles , 16 km
2020/11/29 00:53 KHUF 290053Z 21003KT 10SM CLR 03/M03 A3019 RMK AO2 SLP230 T00331028
KIND - Indianapolis, Indiana, USA
Distance from station: NE 36mi, 58km
Updated: Sat, 28-Nov-2020 7:54pm EST
Clear
Clear
 Wind from SW
Wind: SW 8 mph , 13 km/h
Temperature: 37°F , 3°C
Wind Chill: 31°F , -1°C
Dew Point: 25°F , -4°C
Humidity: 60%
Barometer: 30.17 inHg , 1021.7 hPa
Clouds: Clear
Visibility: 10 miles , 16 km
2020/11/29 00:54 KIND 290054Z 23007KT 10SM CLR 03/M04 A3017 RMK AO2 SLP222 T00281039
 
KHFY - Indianapolis, Indiana, USA
Distance from station: NE 40mi, 65km
Updated: Sat, 28-Nov-2020 8:35pm EST
Clear
Clear
 Wind from calm
Wind: Calm
Temperature: 36°F , 2°C
Dew Point: 28°F , -2°C
Humidity: 75%
Barometer: 30.18 inHg , 1022 hPa
Clouds: Clear
Visibility: 10 miles , 16 km
2020/11/29 01:35 KHFY 290135Z AUTO 00000KT 10SM CLR 02/M02 A3018 RMK AO2 T00241020
KBAK - Columbus/Balkala, Indiana, USA
Distance from station: E 43mi, 69km
Updated: Sat, 28-Nov-2020 7:50pm EST
Clear
Clear
 Wind from calm
Wind: Calm
Temperature: 37°F , 3°C
Dew Point: 27°F , -3°C
Humidity: 65%
Barometer: 30.19 inHg , 1022.4 hPa
Clouds: Clear
Visibility: 10 miles , 16 km
2020/11/29 00:50 KBAK 290050Z 00000KT 10SM CLR 03/M03 A3019
 
KEYE - Indianapolis, Indiana, USA
Distance from station: NNE 43mi, 69km
Updated: Sat, 28-Nov-2020 7:53pm EST
Clear
Clear
 Wind from SW
Wind: SW 3 mph , 6 km/h
Temperature: 41°F , 5°C
Dew Point: 23°F , -5°C
Humidity: 49%
Barometer: 30.16 inHg , 1021.3 hPa
Clouds: Clear
Visibility: 10 miles , 16 km
2020/11/29 00:53 KEYE 290053Z AUTO 22003KT 10SM CLR 05/M05 A3016 RMK AO2 SLP218 T00501050
KDCY - Daviess County, Indiana, USA
Distance from station: SSW 47mi, 76km
Updated: Sat, 28-Nov-2020 8:15pm EST
Clear
Clear
 Wind from W
Wind: W 3 mph , 6 km/h
Temperature: 36°F , 2°C
Dew Point: 28°F , -2°C
Humidity: 75%
Barometer: 30.21 inHg , 1023 hPa
Clouds: Clear
Visibility: 10 miles , 16 km
2020/11/29 01:15 KDCY 290115Z AUTO 26003KT 10SM CLR 02/M02 A3021 RMK AO2 T00191021
 
KCFJ - Crawfordsville, Indiana, USA
Distance from station: NNW 49mi, 78km
Updated: Sat, 28-Nov-2020 8:15pm EST
Clear
Clear
 Wind from SSW
Wind: SSW 8 mph , 13 km/h
Temperature: 36°F , 2°C
Wind Chill: 30°F , -1°C
Dew Point: 25°F , -4°C
Humidity: 65%
Barometer: 30.16 inHg , 1021.3 hPa
Clouds: Clear
Visibility: 10 miles , 16 km
2020/11/29 01:15 KCFJ 290115Z AUTO 21007KT 10SM CLR 02/M04 A3016 RMK AO2 T00151037